createdAt,value
2016-11-15T00:00:36.588Z,979.08
2016-11-15T00:01:36.566Z,979.1
2016-11-15T00:02:37.103Z,979.09
2016-11-15T00:03:36.971Z,979.12
2016-11-15T00:04:36.972Z,979.07
2016-11-15T00:05:36.430Z,979.06
2016-11-15T00:06:36.834Z,979.04
2016-11-15T00:07:36.428Z,979.01
2016-11-15T00:08:36.448Z,978.99
2016-11-15T00:09:36.652Z,978.98
2016-11-15T00:10:36.762Z,978.96
2016-11-15T00:11:36.709Z,978.94
2016-11-15T00:12:36.156Z,978.97
2016-11-15T00:13:36.588Z,978.93
2016-11-15T00:14:36.440Z,978.95
2016-11-15T00:15:36.052Z,978.92
2016-11-15T00:16:36.523Z,978.98
2016-11-15T00:17:35.878Z,978.95
2016-11-15T00:18:35.976Z,978.93
2016-11-15T00:19:35.893Z,978.89
2016-11-15T00:20:35.964Z,978.91
2016-11-15T00:21:35.719Z,978.88
2016-11-15T00:22:35.780Z,978.83
2016-11-15T00:23:36.090Z,978.79
2016-11-15T00:24:36.103Z,978.74
2016-11-15T00:25:35.699Z,978.74
2016-11-15T00:26:35.714Z,978.81
2016-11-15T00:27:35.459Z,978.78
2016-11-15T00:28:35.892Z,978.86
2016-11-15T00:29:35.377Z,978.89
2016-11-15T00:30:35.608Z,978.88
2016-11-15T00:31:35.818Z,978.84
2016-11-15T00:32:35.431Z,978.86
2016-11-15T00:33:35.347Z,978.84
2016-11-15T00:34:35.774Z,978.89
2016-11-15T00:35:35.619Z,978.89
2016-11-15T00:36:35.643Z,978.86
2016-11-15T00:37:35.674Z,978.86
2016-11-15T00:38:35.572Z,978.86
2016-11-15T00:39:35.276Z,978.88
2016-11-15T00:40:35.001Z,978.92
2016-11-15T00:41:35.332Z,978.89
2016-11-15T00:42:34.835Z,978.89
2016-11-15T00:43:34.794Z,978.87
2016-11-15T00:44:34.752Z,978.85
2016-11-15T00:45:34.712Z,978.86
2016-11-15T00:46:34.670Z,978.87
2016-11-15T00:47:34.628Z,978.9
2016-11-15T00:48:34.587Z,978.88
2016-11-15T00:49:34.544Z,978.93
2016-11-15T00:50:34.503Z,978.97
2016-11-15T00:51:34.462Z,978.95
2016-11-15T00:52:34.420Z,978.98
2016-11-15T00:53:34.379Z,978.95
2016-11-15T00:54:34.337Z,978.98
2016-11-15T00:55:34.299Z,978.99
2016-11-15T00:56:34.256Z,978.98
2016-11-15T00:57:34.213Z,978.97
2016-11-15T00:58:34.170Z,979.02
2016-11-15T00:59:34.129Z,978.94
2016-11-15T01:00:34.091Z,978.99
2016-11-15T01:01:34.046Z,978.93
2016-11-15T01:02:34.005Z,978.94
2016-11-15T01:03:33.962Z,978.92
2016-11-15T01:04:33.922Z,978.98
2016-11-15T01:05:33.880Z,978.91
2016-11-15T01:06:33.837Z,978.96
2016-11-15T01:07:33.796Z,978.93
2016-11-15T01:08:33.759Z,978.92
2016-11-15T01:09:33.714Z,978.88
2016-11-15T01:10:33.672Z,978.84
2016-11-15T01:11:33.631Z,978.8
2016-11-15T01:12:33.588Z,978.81
2016-11-15T01:13:33.549Z,978.82
2016-11-15T01:14:33.508Z,978.82
2016-11-15T01:15:33.462Z,978.85
2016-11-15T01:16:33.421Z,978.85
2016-11-15T01:17:33.381Z,978.85
2016-11-15T01:18:33.339Z,978.86
2016-11-15T01:19:33.297Z,978.87
2016-11-15T01:20:33.257Z,978.88
2016-11-15T01:21:33.213Z,978.84
2016-11-15T01:22:33.173Z,978.84
2016-11-15T01:23:33.132Z,978.85
2016-11-15T01:24:33.091Z,978.84
2016-11-15T01:25:33.048Z,978.84
2016-11-15T01:26:33.006Z,978.8
2016-11-15T01:27:32.965Z,978.83
2016-11-15T01:28:32.924Z,978.79
2016-11-15T01:29:32.885Z,978.79
2016-11-15T01:30:32.843Z,978.82
2016-11-15T01:31:32.799Z,978.81
2016-11-15T01:32:32.757Z,978.87
2016-11-15T01:33:32.716Z,978.85
2016-11-15T01:34:32.674Z,978.84
2016-11-15T01:35:32.634Z,978.88
2016-11-15T01:36:32.593Z,978.86
2016-11-15T01:37:32.551Z,978.91
2016-11-15T01:38:32.508Z,978.95
2016-11-15T01:39:32.467Z,978.94
2016-11-15T01:40:32.426Z,978.98
2016-11-15T01:41:32.384Z,978.94
2016-11-15T01:42:32.343Z,978.96
2016-11-15T01:43:32.301Z,978.94
2016-11-15T01:44:32.260Z,978.95
2016-11-15T01:45:32.218Z,978.93
2016-11-15T01:46:32.177Z,978.92
2016-11-15T01:47:32.137Z,978.91
2016-11-15T01:48:32.093Z,978.87
2016-11-15T01:49:32.052Z,978.84
2016-11-15T01:50:32.015Z,978.8
2016-11-15T01:51:31.969Z,978.82
2016-11-15T01:52:31.927Z,978.84
2016-11-15T01:53:31.887Z,978.82
2016-11-15T01:54:31.845Z,978.78
2016-11-15T01:55:31.802Z,978.8
2016-11-15T01:56:31.762Z,978.81
2016-11-15T01:57:31.720Z,978.78
2016-11-15T01:58:31.682Z,978.82
2016-11-15T01:59:31.637Z,978.81
2016-11-15T02:00:31.596Z,978.81
2016-11-15T02:01:31.552Z,978.82
2016-11-15T02:02:31.513Z,978.79
2016-11-15T02:03:31.471Z,978.74
2016-11-15T02:04:31.429Z,978.71
2016-11-15T02:05:31.388Z,978.67
2016-11-15T02:06:31.346Z,978.67
2016-11-15T02:07:31.306Z,978.63
2016-11-15T02:08:31.263Z,978.74
2016-11-15T02:09:31.222Z,978.71
2016-11-15T02:10:31.180Z,978.68
2016-11-15T02:11:31.138Z,978.68
2016-11-15T02:12:31.097Z,978.68
2016-11-15T02:13:31.057Z,978.64
2016-11-15T02:14:31.019Z,978.66
2016-11-15T02:15:30.971Z,978.68
2016-11-15T02:16:30.932Z,978.65
2016-11-15T02:17:30.889Z,978.65
2016-11-15T02:18:30.854Z,978.73
2016-11-15T02:19:30.808Z,978.71
2016-11-15T02:20:30.765Z,978.76
2016-11-15T02:21:30.724Z,978.76
2016-11-15T02:22:30.683Z,978.71
2016-11-15T02:23:30.641Z,978.68
2016-11-15T02:24:30.598Z,978.66
2016-11-15T02:25:30.558Z,978.63
2016-11-15T02:26:30.518Z,978.56
2016-11-15T02:27:30.474Z,978.53
2016-11-15T02:28:30.432Z,978.53
2016-11-15T02:29:30.391Z,978.58
2016-11-15T02:30:30.350Z,978.59
2016-11-15T02:31:30.317Z,978.66
2016-11-15T02:32:30.266Z,978.71
2016-11-15T02:33:30.225Z,978.72
2016-11-15T02:34:30.188Z,978.74
2016-11-15T02:35:30.142Z,978.71
2016-11-15T02:36:30.101Z,978.75
2016-11-15T02:37:30.059Z,978.68
2016-11-15T02:38:30.017Z,978.66
2016-11-15T02:39:29.975Z,978.64
2016-11-15T02:40:29.934Z,978.6
2016-11-15T02:41:29.892Z,978.6
2016-11-15T02:42:29.852Z,978.55
2016-11-15T02:43:29.809Z,978.55
2016-11-15T02:44:29.767Z,978.53
2016-11-15T02:45:29.727Z,978.54
2016-11-15T02:46:29.684Z,978.51
2016-11-15T02:47:29.642Z,978.54
2016-11-15T02:48:29.615Z,978.55
2016-11-15T02:49:29.561Z,978.54
2016-11-15T02:50:29.518Z,978.52
2016-11-15T02:51:29.478Z,978.56
2016-11-15T02:52:29.437Z,978.57
2016-11-15T02:53:29.393Z,978.6
2016-11-15T02:54:29.353Z,978.5
2016-11-15T02:55:29.311Z,978.55
2016-11-15T02:56:29.270Z,978.53
2016-11-15T02:57:29.229Z,978.48
2016-11-15T02:58:29.187Z,978.52
2016-11-15T02:59:29.145Z,978.53
2016-11-15T03:00:29.103Z,978.53
2016-11-15T03:01:29.061Z,978.6
2016-11-15T03:02:29.021Z,978.59
2016-11-15T03:03:28.980Z,978.58
2016-11-15T03:04:28.937Z,978.61
2016-11-15T03:05:28.896Z,978.63
2016-11-15T03:06:28.854Z,978.64
2016-11-15T03:07:28.813Z,978.62
2016-11-15T03:08:28.770Z,978.64
2016-11-15T03:09:28.731Z,978.66
2016-11-15T03:10:28.688Z,978.65
2016-11-15T03:11:28.647Z,978.66
2016-11-15T03:12:28.604Z,978.69
2016-11-15T03:13:28.563Z,978.68
2016-11-15T03:14:28.523Z,978.68
2016-11-15T03:15:28.480Z,978.68
2016-11-15T03:16:28.467Z,978.69
2016-11-15T03:17:28.401Z,978.7
2016-11-15T03:18:28.358Z,978.73
2016-11-15T03:19:28.314Z,978.8
2016-11-15T03:20:28.271Z,978.76
2016-11-15T03:21:28.232Z,978.77
2016-11-15T03:22:28.190Z,978.77
2016-11-15T03:23:28.147Z,978.8
2016-11-15T03:24:28.107Z,978.79
2016-11-15T03:25:28.067Z,978.76
2016-11-15T03:26:28.022Z,978.75
2016-11-15T03:27:27.982Z,978.72
2016-11-15T03:28:27.996Z,978.67
2016-11-15T03:29:27.951Z,978.74
2016-11-15T03:30:27.860Z,978.73
2016-11-15T03:31:27.817Z,978.77
2016-11-15T03:32:27.774Z,978.75
2016-11-15T03:33:27.734Z,978.78
2016-11-15T03:34:27.691Z,978.81
2016-11-15T03:35:27.651Z,978.82
2016-11-15T03:36:27.608Z,978.86
2016-11-15T03:37:27.569Z,978.84
2016-11-15T03:38:27.526Z,978.9
2016-11-15T03:39:27.484Z,978.86
2016-11-15T03:40:27.443Z,978.82
2016-11-15T03:41:27.401Z,978.87
2016-11-15T03:42:27.363Z,978.89
2016-11-15T03:43:27.318Z,978.89
2016-11-15T03:44:27.277Z,978.83
2016-11-15T03:45:27.235Z,978.89
2016-11-15T03:46:27.193Z,978.88
2016-11-15T03:47:27.152Z,978.89
2016-11-15T03:48:27.113Z,978.92
2016-11-15T03:49:27.069Z,978.96
2016-11-15T03:50:27.031Z,978.95
2016-11-15T03:51:26.987Z,978.99
2016-11-15T03:52:26.947Z,979.01
2016-11-15T03:53:26.904Z,978.95
2016-11-15T03:54:26.862Z,979.01
2016-11-15T03:55:26.821Z,979.01
2016-11-15T03:56:26.779Z,979.01
2016-11-15T03:57:26.741Z,978.99
2016-11-15T03:58:26.696Z,979.01
2016-11-15T03:59:26.656Z,979.03
2016-11-15T04:00:26.616Z,978.97
2016-11-15T04:01:26.574Z,978.97
2016-11-15T04:02:26.532Z,978.96
2016-11-15T04:03:26.491Z,979
2016-11-15T04:04:26.448Z,979
2016-11-15T04:05:26.406Z,979.04
2016-11-15T04:06:26.366Z,979
2016-11-15T04:07:26.322Z,979.05
2016-11-15T04:08:26.283Z,979.02
2016-11-15T04:09:26.243Z,979.11
2016-11-15T04:10:26.200Z,979.11
2016-11-15T04:11:26.161Z,979.11
2016-11-15T04:12:26.117Z,979.12
2016-11-15T04:13:26.075Z,979.09
2016-11-15T04:14:26.034Z,979.05
2016-11-15T04:15:25.993Z,979.11
2016-11-15T04:16:25.951Z,979.09
2016-11-15T04:17:25.909Z,979.09
2016-11-15T04:18:25.869Z,979.12
2016-11-15T04:19:25.827Z,979.1
2016-11-15T04:20:25.788Z,979.08
2016-11-15T04:21:25.743Z,979.06
2016-11-15T04:22:25.702Z,979.01
2016-11-15T04:23:25.662Z,979
2016-11-15T04:24:25.620Z,979.05
2016-11-15T04:25:25.578Z,979.03
2016-11-15T04:26:25.538Z,979.11
2016-11-15T04:27:25.495Z,979.17
2016-11-15T04:28:25.455Z,979.23
2016-11-15T04:29:25.413Z,979.19
2016-11-15T04:30:25.371Z,979.18
2016-11-15T04:31:25.330Z,979.22
2016-11-15T04:32:25.288Z,979.21
2016-11-15T04:33:25.247Z,979.25
2016-11-15T04:34:25.207Z,979.28
2016-11-15T04:35:25.165Z,979.31
2016-11-15T04:36:25.123Z,979.31
2016-11-15T04:37:25.080Z,979.38
2016-11-15T04:38:25.040Z,979.36
2016-11-15T04:39:25.001Z,979.33
2016-11-15T04:40:24.957Z,979.37
2016-11-15T04:41:24.915Z,979.35
2016-11-15T04:42:24.876Z,979.33
2016-11-15T04:43:24.832Z,979.35
2016-11-15T04:44:24.792Z,979.31
2016-11-15T04:45:24.752Z,979.38
2016-11-15T04:46:24.709Z,979.35
2016-11-15T04:47:24.668Z,979.38
2016-11-15T04:48:24.627Z,979.35
2016-11-15T04:49:24.585Z,979.39
2016-11-15T04:50:24.545Z,979.35
2016-11-15T04:51:24.503Z,979.3
2016-11-15T04:52:24.461Z,979.29
2016-11-15T04:53:24.419Z,979.26
2016-11-15T04:54:24.380Z,979.3
2016-11-15T04:55:24.338Z,979.3
2016-11-15T04:56:24.297Z,979.3
2016-11-15T04:57:24.255Z,979.33
2016-11-15T04:58:24.213Z,979.35
2016-11-15T04:59:24.171Z,979.36
2016-11-15T05:00:24.130Z,979.33
2016-11-15T05:01:24.089Z,979.33
2016-11-15T05:02:24.049Z,979.32
2016-11-15T05:03:24.009Z,979.35
2016-11-15T05:04:23.968Z,979.34
2016-11-15T05:05:23.924Z,979.36
2016-11-15T05:06:23.881Z,979.35
2016-11-15T05:07:23.843Z,979.3
2016-11-15T05:08:23.800Z,979.28
2016-11-15T05:09:23.758Z,979.28
2016-11-15T05:10:23.717Z,979.26
2016-11-15T05:11:23.676Z,979.22
2016-11-15T05:12:23.635Z,979.21
2016-11-15T05:13:23.589Z,979.17
2016-11-15T05:14:23.551Z,979.11
2016-11-15T05:15:23.511Z,979.1
2016-11-15T05:16:23.468Z,979.15
2016-11-15T05:17:23.428Z,979.14
2016-11-15T05:18:23.389Z,979.19
2016-11-15T05:19:23.345Z,979.21
2016-11-15T05:20:23.332Z,979.25
2016-11-15T05:21:23.261Z,979.29
2016-11-15T05:22:23.220Z,979.25
2016-11-15T05:23:23.178Z,979.23
2016-11-15T05:24:23.137Z,979.26
2016-11-15T05:25:23.097Z,979.21
2016-11-15T05:26:23.055Z,979.27
2016-11-15T05:27:23.013Z,979.29
2016-11-15T05:28:22.972Z,979.23
2016-11-15T05:29:22.933Z,979.16
2016-11-15T05:30:22.891Z,979.19
2016-11-15T05:31:22.850Z,979.16
2016-11-15T05:32:22.807Z,979.18
2016-11-15T05:33:22.765Z,979.19
2016-11-15T05:34:22.724Z,979.21
2016-11-15T05:35:22.682Z,979.2
2016-11-15T05:36:22.641Z,979.16
2016-11-15T05:37:22.600Z,979.17
2016-11-15T05:38:22.557Z,979.2
2016-11-15T05:39:22.517Z,979.21
2016-11-15T05:40:22.478Z,979.21
2016-11-15T05:41:22.435Z,979.25
2016-11-15T05:42:22.391Z,979.25
2016-11-15T05:43:22.351Z,979.27
2016-11-15T05:44:22.311Z,979.27
2016-11-15T05:45:22.271Z,979.27
2016-11-15T05:46:22.228Z,979.28
2016-11-15T05:47:22.187Z,979.27
2016-11-15T05:48:22.144Z,979.26
2016-11-15T05:49:22.103Z,979.25
2016-11-15T05:50:22.062Z,979.26
2016-11-15T05:51:22.020Z,979.22
2016-11-15T05:52:21.978Z,979.19
2016-11-15T05:53:21.938Z,979.18
2016-11-15T05:54:21.897Z,979.19
2016-11-15T05:55:21.856Z,979.17
2016-11-15T05:56:21.812Z,979.18
2016-11-15T05:57:21.774Z,979.2
2016-11-15T05:58:21.730Z,979.19
2016-11-15T05:59:21.695Z,979.2
2016-11-15T06:00:21.649Z,979.18
2016-11-15T06:01:21.607Z,979.23
2016-11-15T06:02:21.565Z,979.24
2016-11-15T06:03:21.524Z,979.22
2016-11-15T06:04:21.483Z,979.27
2016-11-15T06:05:21.440Z,979.28
2016-11-15T06:06:21.400Z,979.25
2016-11-15T06:07:21.358Z,979.3
2016-11-15T06:08:21.318Z,979.29
2016-11-15T06:09:21.276Z,979.3
2016-11-15T06:10:21.235Z,979.31
2016-11-15T06:11:21.193Z,979.34
2016-11-15T06:12:21.153Z,979.36
2016-11-15T06:13:21.110Z,979.36
2016-11-15T06:14:21.070Z,979.38
2016-11-15T06:15:21.032Z,979.37
2016-11-15T06:16:20.986Z,979.41
2016-11-15T06:17:20.959Z,979.36
2016-11-15T06:18:20.902Z,979.36
2016-11-15T06:19:20.862Z,979.35
2016-11-15T06:20:20.819Z,979.39
2016-11-15T06:21:20.779Z,979.35
2016-11-15T06:22:20.737Z,979.43
2016-11-15T06:23:20.695Z,979.39
2016-11-15T06:24:20.654Z,979.43
2016-11-15T06:25:20.617Z,979.5
2016-11-15T06:26:20.571Z,979.5
2016-11-15T06:27:20.530Z,979.54
2016-11-15T06:28:20.489Z,979.57
2016-11-15T06:29:20.446Z,979.6
2016-11-15T06:30:20.406Z,979.55
2016-11-15T06:31:20.366Z,979.56
2016-11-15T06:32:20.323Z,979.54
2016-11-15T06:33:20.281Z,979.59
2016-11-15T06:34:20.241Z,979.66
2016-11-15T06:35:20.200Z,979.59
2016-11-15T06:36:20.157Z,979.63
2016-11-15T06:37:20.117Z,979.62
2016-11-15T06:38:20.074Z,979.63
2016-11-15T06:39:20.032Z,979.65
2016-11-15T06:40:19.991Z,979.66
2016-11-15T06:41:19.950Z,979.69
2016-11-15T06:42:19.912Z,979.68
2016-11-15T06:43:19.868Z,979.71
2016-11-15T06:44:19.825Z,979.66
2016-11-15T06:45:19.784Z,979.68
2016-11-15T06:46:19.742Z,979.67
2016-11-15T06:47:19.701Z,979.64
2016-11-15T06:48:19.660Z,979.69
2016-11-15T06:49:19.619Z,979.67
2016-11-15T06:50:19.577Z,979.67
2016-11-15T06:51:19.538Z,979.71
2016-11-15T06:52:19.495Z,979.66
2016-11-15T06:53:19.454Z,979.64
2016-11-15T06:54:19.411Z,979.65
2016-11-15T06:55:19.371Z,979.69
2016-11-15T06:56:19.330Z,979.69
2016-11-15T06:57:19.288Z,979.66
2016-11-15T06:58:19.243Z,979.74
2016-11-15T06:59:19.204Z,979.71
2016-11-15T07:00:19.163Z,979.73
2016-11-15T07:01:19.122Z,979.71
2016-11-15T07:02:19.079Z,979.75
2016-11-15T07:03:19.039Z,979.73
2016-11-15T07:04:18.998Z,979.73
2016-11-15T07:05:18.956Z,979.78
2016-11-15T07:06:18.915Z,979.75
2016-11-15T07:07:18.873Z,979.82
2016-11-15T07:08:18.831Z,979.8
2016-11-15T07:09:18.796Z,979.82
2016-11-15T07:10:18.748Z,979.85
2016-11-15T07:11:18.720Z,979.82
2016-11-15T07:12:18.666Z,979.86
2016-11-15T07:13:18.625Z,979.89
2016-11-15T07:14:18.584Z,979.91
2016-11-15T07:15:18.542Z,979.87
2016-11-15T07:16:18.499Z,979.89
2016-11-15T07:17:18.460Z,979.9
2016-11-15T07:18:18.416Z,979.9
2016-11-15T07:19:18.376Z,979.9
2016-11-15T07:20:18.333Z,979.88
2016-11-15T07:21:18.294Z,979.91
2016-11-15T07:22:18.251Z,979.9
2016-11-15T07:23:18.213Z,979.89
2016-11-15T07:24:18.169Z,979.9
2016-11-15T07:25:18.127Z,979.94
2016-11-15T07:26:18.086Z,979.91
2016-11-15T07:27:18.049Z,979.94
2016-11-15T07:28:18.008Z,979.89
2016-11-15T07:29:17.965Z,979.92
2016-11-15T07:30:17.922Z,979.91
2016-11-15T07:31:17.880Z,979.91
2016-11-15T07:32:17.839Z,979.93
2016-11-15T07:33:17.797Z,979.94
2016-11-15T07:34:17.755Z,979.93
2016-11-15T07:35:17.716Z,979.9
2016-11-15T07:36:17.674Z,979.9
2016-11-15T07:37:17.634Z,979.87
2016-11-15T07:38:17.592Z,979.91
2016-11-15T07:39:17.550Z,979.84
2016-11-15T07:40:17.510Z,979.86
2016-11-15T07:41:17.472Z,979.84
2016-11-15T07:42:17.428Z,979.83
2016-11-15T07:43:17.386Z,979.85
2016-11-15T07:44:17.345Z,979.89
2016-11-15T07:45:17.313Z,979.89
2016-11-15T07:46:17.263Z,979.86
2016-11-15T07:47:17.224Z,979.84
2016-11-15T07:48:17.180Z,979.85
2016-11-15T07:49:17.142Z,979.85
2016-11-15T07:50:17.101Z,979.87
2016-11-15T07:51:17.059Z,979.88
2016-11-15T07:52:17.018Z,979.85
2016-11-15T07:53:16.978Z,979.84
2016-11-15T07:54:16.937Z,979.85
2016-11-15T07:55:16.897Z,979.88
2016-11-15T07:56:16.856Z,979.86
2016-11-15T07:57:16.813Z,979.86
2016-11-15T07:58:16.774Z,979.83
2016-11-15T07:59:16.734Z,979.86
2016-11-15T08:00:16.694Z,979.87
2016-11-15T08:01:16.652Z,979.86
2016-11-15T08:02:16.611Z,979.93
2016-11-15T08:03:16.573Z,979.89
2016-11-15T08:04:16.533Z,979.88
2016-11-15T08:05:16.491Z,979.88
2016-11-15T08:06:16.449Z,979.86
2016-11-15T08:07:16.410Z,979.89
2016-11-15T08:08:16.371Z,979.9
2016-11-15T08:09:16.330Z,979.92
2016-11-15T08:10:16.290Z,979.91
2016-11-15T08:11:16.249Z,979.91
2016-11-15T08:12:16.210Z,979.92
2016-11-15T08:13:16.170Z,979.85
2016-11-15T08:14:16.131Z,979.89
2016-11-15T08:15:16.090Z,979.93
2016-11-15T08:16:16.050Z,979.94
2016-11-15T08:17:16.011Z,979.95
2016-11-15T08:18:15.971Z,979.97
2016-11-15T08:19:15.930Z,980.02
2016-11-15T08:20:15.891Z,979.97
2016-11-15T08:21:15.854Z,979.98
2016-11-15T08:22:15.813Z,980
2016-11-15T08:23:15.778Z,980.01
2016-11-15T08:24:15.746Z,980.06
2016-11-15T08:25:15.701Z,979.96
2016-11-15T08:26:15.673Z,979.99
2016-11-15T08:27:15.629Z,979.97
2016-11-15T08:28:15.590Z,979.96
2016-11-15T08:29:15.553Z,979.92
2016-11-15T08:30:15.516Z,979.93
2016-11-15T08:31:15.480Z,979.91
2016-11-15T08:32:15.445Z,979.9
2016-11-15T08:33:15.406Z,979.92
2016-11-15T08:34:15.373Z,979.99
2016-11-15T08:35:15.337Z,980.01
2016-11-15T08:36:15.302Z,980.02
2016-11-15T08:37:15.263Z,980.01
2016-11-15T08:38:15.228Z,980.03
2016-11-15T08:39:15.191Z,979.98
2016-11-15T08:40:15.155Z,979.94
2016-11-15T08:41:15.120Z,979.99
2016-11-15T08:42:15.085Z,979.92
2016-11-15T08:43:15.049Z,979.91
2016-11-15T08:44:15.011Z,979.9
2016-11-15T08:45:14.974Z,979.86
2016-11-15T08:46:14.941Z,979.81
2016-11-15T08:47:14.903Z,979.91
2016-11-15T08:48:14.866Z,979.9
2016-11-15T08:49:14.831Z,979.89
2016-11-15T08:50:14.793Z,979.82
2016-11-15T08:51:14.756Z,979.85
2016-11-15T08:52:14.721Z,979.85
2016-11-15T08:53:14.682Z,979.92
2016-11-15T08:54:14.645Z,979.96
2016-11-15T08:55:14.609Z,980
2016-11-15T08:56:14.572Z,980.02
2016-11-15T08:57:14.534Z,980.02
2016-11-15T08:58:14.497Z,980
2016-11-15T08:59:14.459Z,980.01
2016-11-15T09:00:14.422Z,979.97
2016-11-15T09:01:14.385Z,979.95
2016-11-15T09:02:14.346Z,979.94
2016-11-15T09:03:14.309Z,979.97
2016-11-15T09:04:14.270Z,979.96
2016-11-15T09:05:14.238Z,979.88
2016-11-15T09:06:14.196Z,979.95
2016-11-15T09:07:14.159Z,979.95
2016-11-15T09:08:14.120Z,979.99
2016-11-15T09:09:14.083Z,979.95
2016-11-15T09:10:14.043Z,979.93
2016-11-15T09:11:14.006Z,980.02
2016-11-15T09:12:13.970Z,979.95
2016-11-15T09:13:13.932Z,979.96
2016-11-15T09:14:13.892Z,979.92
2016-11-15T09:15:13.856Z,979.93
2016-11-15T09:16:13.818Z,979.94
2016-11-15T09:17:13.780Z,979.97
2016-11-15T09:18:13.743Z,979.96
2016-11-15T09:19:13.708Z,979.98
2016-11-15T09:20:13.671Z,979.97
2016-11-15T09:21:13.631Z,980.02
2016-11-15T09:22:13.595Z,980
2016-11-15T09:23:13.558Z,980.03
2016-11-15T09:24:13.529Z,980.03
2016-11-15T09:25:13.488Z,980.02
2016-11-15T09:26:13.451Z,980.04
2016-11-15T09:27:13.413Z,980.02
2016-11-15T09:28:13.373Z,980.01
2016-11-15T09:29:13.337Z,980.03
2016-11-15T09:30:13.302Z,980.05
2016-11-15T09:31:13.266Z,979.99
2016-11-15T09:32:13.227Z,979.99
2016-11-15T09:33:13.195Z,980.01
2016-11-15T09:34:13.155Z,979.99
2016-11-15T09:35:13.119Z,979.98
2016-11-15T09:36:13.082Z,979.99
2016-11-15T09:37:13.046Z,979.97
2016-11-15T09:38:13.011Z,979.98
2016-11-15T09:39:12.972Z,979.92
2016-11-15T09:40:12.937Z,979.95
2016-11-15T09:41:12.900Z,979.96
2016-11-15T09:42:12.863Z,979.93
2016-11-15T09:43:12.826Z,979.9
2016-11-15T09:44:12.797Z,980.01
2016-11-15T09:45:12.753Z,979.91
2016-11-15T09:46:12.715Z,980
2016-11-15T09:47:12.681Z,980.14
2016-11-15T09:48:12.642Z,979.95
2016-11-15T09:49:12.606Z,979.97
2016-11-15T09:50:12.574Z,979.95
2016-11-15T09:51:12.536Z,979.85
2016-11-15T09:52:12.502Z,979.86
2016-11-15T09:53:12.467Z,979.81
2016-11-15T09:54:12.434Z,979.82
2016-11-15T09:55:12.400Z,979.81
2016-11-15T09:56:12.365Z,979.78
2016-11-15T09:57:12.328Z,979.73
2016-11-15T09:58:12.296Z,979.77
2016-11-15T09:59:12.263Z,979.77
2016-11-15T10:00:12.227Z,979.79
2016-11-15T10:01:12.196Z,979.72
2016-11-15T10:02:12.159Z,979.73
2016-11-15T10:03:12.125Z,979.76
2016-11-15T10:04:12.090Z,979.74
2016-11-15T10:05:12.055Z,979.73
2016-11-15T10:06:12.022Z,979.72
2016-11-15T10:07:11.986Z,979.74
2016-11-15T10:08:11.951Z,979.74
2016-11-15T10:09:11.917Z,979.75
2016-11-15T10:10:11.880Z,979.74
2016-11-15T10:11:11.845Z,979.79
2016-11-15T10:12:11.811Z,979.8
2016-11-15T10:13:11.775Z,979.84
2016-11-15T10:14:11.740Z,979.85
2016-11-15T10:15:11.703Z,979.95
2016-11-15T10:16:11.668Z,980
2016-11-15T10:17:11.633Z,979.94
2016-11-15T10:18:11.598Z,979.93
2016-11-15T10:19:11.561Z,979.83
2016-11-15T10:20:11.526Z,979.89
2016-11-15T10:21:11.491Z,979.96
2016-11-15T10:22:11.459Z,979.92
2016-11-15T10:23:11.422Z,979.97
2016-11-15T10:24:11.387Z,979.87
2016-11-15T10:25:11.353Z,980.03
2016-11-15T10:26:11.319Z,979.84
2016-11-15T10:27:11.285Z,979.85
2016-11-15T10:28:11.253Z,979.79
2016-11-15T10:29:11.220Z,979.74
2016-11-15T10:30:11.188Z,979.72
2016-11-15T10:31:11.154Z,979.71
2016-11-15T10:32:11.120Z,979.69
2016-11-15T10:33:11.089Z,979.67
2016-11-15T10:34:11.054Z,979.62
2016-11-15T10:35:11.022Z,979.64
2016-11-15T10:36:10.990Z,979.64
2016-11-15T10:37:10.958Z,979.62
2016-11-15T10:38:10.923Z,979.56
2016-11-15T10:39:10.891Z,979.56
2016-11-15T10:40:10.859Z,979.57
2016-11-15T10:41:10.824Z,979.61
2016-11-15T10:42:10.790Z,979.58
2016-11-15T10:43:10.757Z,979.55
2016-11-15T10:44:10.723Z,979.57
2016-11-15T10:45:10.689Z,979.59
2016-11-15T10:46:10.655Z,979.61
2016-11-15T10:47:10.621Z,979.63
2016-11-15T10:48:10.590Z,979.62
2016-11-15T10:49:10.555Z,979.57
2016-11-15T10:50:10.520Z,979.59
2016-11-15T10:51:10.484Z,979.57
2016-11-15T10:52:10.449Z,979.57
2016-11-15T10:53:10.417Z,979.54
2016-11-15T10:54:10.379Z,979.48
2016-11-15T10:55:10.347Z,979.5
2016-11-15T10:56:10.312Z,979.44
2016-11-15T10:57:10.277Z,979.4
2016-11-15T10:58:10.242Z,979.4
2016-11-15T10:59:10.208Z,979.36
2016-11-15T11:00:10.169Z,979.36
2016-11-15T11:01:10.136Z,979.35
2016-11-15T11:02:10.100Z,979.37
2016-11-15T11:03:10.063Z,979.38
2016-11-15T11:04:10.030Z,979.35
2016-11-15T11:05:09.996Z,979.38
2016-11-15T11:06:09.960Z,979.35
2016-11-15T11:07:09.923Z,979.32
2016-11-15T11:08:09.888Z,979.32
2016-11-15T11:09:09.853Z,979.29
2016-11-15T11:10:09.817Z,979.31
2016-11-15T11:11:09.781Z,979.35
2016-11-15T11:12:09.747Z,979.3
2016-11-15T11:13:09.712Z,979.28
2016-11-15T11:14:09.678Z,979.25
2016-11-15T11:15:09.638Z,979.25
2016-11-15T11:16:09.607Z,979.22
2016-11-15T11:17:09.567Z,979.23
2016-11-15T11:18:09.531Z,979.2
2016-11-15T11:19:09.494Z,979.19
2016-11-15T11:20:09.458Z,979.16
2016-11-15T11:21:09.421Z,979.18
2016-11-15T11:22:09.385Z,979.15
2016-11-15T11:23:09.348Z,979.18
2016-11-15T11:24:09.314Z,979.18
2016-11-15T11:25:09.275Z,979.2
2016-11-15T11:26:09.240Z,979.23
2016-11-15T11:27:09.203Z,979.2
2016-11-15T11:28:09.165Z,979.22
2016-11-15T11:29:09.129Z,979.19
2016-11-15T11:30:09.091Z,979.15
2016-11-15T11:31:09.057Z,979.17
2016-11-15T11:32:09.019Z,979.13
2016-11-15T11:33:08.982Z,979.17
2016-11-15T11:34:08.946Z,979.15
2016-11-15T11:35:08.908Z,979.17
2016-11-15T11:36:08.871Z,979.18
2016-11-15T11:37:08.835Z,979.16
2016-11-15T11:38:08.798Z,979.14
2016-11-15T11:39:08.761Z,979.13
2016-11-15T11:40:08.724Z,979.11
2016-11-15T11:41:08.689Z,979.09
2016-11-15T11:42:08.651Z,979.07
2016-11-15T11:43:08.614Z,979.08
2016-11-15T11:44:08.577Z,979.04
2016-11-15T11:45:08.541Z,978.99
2016-11-15T11:46:08.504Z,978.99
2016-11-15T11:47:08.467Z,978.92
2016-11-15T11:48:08.430Z,978.96
2016-11-15T11:49:08.394Z,978.93
2016-11-15T11:50:08.358Z,978.91
2016-11-15T11:51:08.321Z,978.91
2016-11-15T11:52:08.286Z,978.89
2016-11-15T11:53:08.248Z,978.86
2016-11-15T11:54:08.211Z,978.9
2016-11-15T11:55:08.174Z,978.88
2016-11-15T11:56:08.139Z,978.91
2016-11-15T11:57:08.101Z,978.85
2016-11-15T11:58:08.064Z,978.92
2016-11-15T11:59:08.026Z,978.92
2016-11-15T12:00:07.990Z,978.96
2016-11-15T12:01:07.955Z,978.92
2016-11-15T12:02:07.915Z,978.94
2016-11-15T12:03:07.879Z,978.93
2016-11-15T12:04:07.851Z,978.92
2016-11-15T12:05:07.805Z,978.91
2016-11-15T12:06:07.769Z,978.9
2016-11-15T12:07:07.739Z,978.87
2016-11-15T12:08:07.695Z,978.85
2016-11-15T12:09:07.657Z,978.84
2016-11-15T12:10:07.622Z,978.82
2016-11-15T12:11:07.584Z,978.8
2016-11-15T12:12:07.549Z,978.79
2016-11-15T12:13:07.510Z,978.77
2016-11-15T12:14:07.474Z,978.71
2016-11-15T12:15:07.437Z,978.72
2016-11-15T12:16:07.400Z,978.7
2016-11-15T12:17:07.362Z,978.7
2016-11-15T12:18:07.324Z,978.69
2016-11-15T12:19:07.289Z,978.67
2016-11-15T12:20:07.252Z,978.68
2016-11-15T12:21:07.216Z,978.66
2016-11-15T12:22:07.179Z,978.59
2016-11-15T12:23:07.141Z,978.56
2016-11-15T12:24:07.106Z,978.52
2016-11-15T12:25:07.069Z,978.53
2016-11-15T12:26:07.034Z,978.53
2016-11-15T12:27:06.994Z,978.59
2016-11-15T12:28:06.960Z,978.58
2016-11-15T12:29:06.922Z,978.57
2016-11-15T12:30:06.885Z,978.52
2016-11-15T12:31:06.847Z,978.52